| Date | Time | Temp. (oF) | Dew Point (oF) | Rel. Hum. (%) | Press. (in.) | Wind Dir. | Wind Speed (mph) | Hourly Rainfall (in.) |
|
|---|---|---|---|---|---|---|---|---|---|
| 1 | 08/12 | 00:00 | 77 | 64 | 66 | 30.05 | SSE | 3 | 0.00 |
| 2 | 08/11 | 23:00 | 79 | 64 | 61 | 30.05 | ESE | 1 | 0.00 |
| 3 | 08/11 | 22:00 | 81 | 63 | 55 | 30.04 | ESE | 2 | 0.00 |
| 4 | 08/11 | 21:00 | 83 | 62 | 50 | 30.03 | SSE | 4 | 0.00 |
| 5 | 08/11 | 20:00 | 86 | 62 | 46 | 30.02 | S | 4 | 0.00 |
| 6 | 08/11 | 19:00 | 89 | 64 | 44 | 30.02 | S | 5 | 0.00 |
| 7 | 08/11 | 18:00 | 93 | 62 | 37 | 30.01 | S | 4 | 0.00 |
| 8 | 08/11 | 17:00 | 94 | 63 | 37 | 30.02 | SSE | 7 | 0.00 |
| 9 | 08/11 | 16:00 | 93 | 62 | 37 | 30.04 | S | 8 | 0.00 |
| 10 | 08/11 | 15:00 | 92 | 62 | 38 | 30.06 | SW | 2 | 0.00 |
| 11 | 08/11 | 14:00 | 91 | 63 | 40 | 30.08 | S | 1 | 0.00 |
| 12 | 08/11 | 13:00 | 88 | 64 | 46 | 30.09 | SW | 1 | 0.00 |
| 13 | 08/11 | 12:00 | 85 | 65 | 52 | 30.11 | S | 5 | 0.00 |
| 14 | 08/11 | 11:00 | 81 | 65 | 60 | 30.13 | S | 1 | 0.00 |
| 15 | 08/11 | 10:00 | 76 | 65 | 70 | 30.13 | S | 2 | 0.00 |
| 16 | 08/11 | 09:00 | 72 | 64 | 78 | 30.14 | SSW | 3 | 0.00 |
| 17 | 08/11 | 08:00 | 68 | 65 | 93 | 30.15 | NNE | 0 | 0.00 |
| 18 | 08/11 | 07:00 | 65 | 62 | 93 | 30.15 | NNE | 0 | 0.00 |
| 19 | 08/11 | 06:00 | 66 | 62 | 90 | 30.14 | N | 0 | 0.00 |
| 20 | 08/11 | 05:00 | 68 | 63 | 86 | 30.13 | ENE | 0 | 0.00 |
| 21 | 08/11 | 04:00 | 70 | 64 | 82 | 30.13 | S | 1 | 0.00 |
| 22 | 08/11 | 03:00 | 70 | 64 | 82 | 30.13 | SSE | 4 | 0.00 |
| 23 | 08/11 | 02:00 | 72 | 65 | 79 | 30.13 | S | 3 | 0.00 |
| 24 | 08/11 | 01:00 | 73 | 63 | 73 | 30.13 | S | 6 | 0.00 |